Time;durP1;ratioP1;P1;durP2;ratioP2;P2;SDS_P1;SDS_P2;PMS_P1;PMS_P2;Temp;Humidity;BMP_temperature;BMP_pressure;BME280_temperature;BME280_humidity;BME280_pressure;Samples;Min_cycle;Max_cycle;Signal;HPM_P1;HPM_P2
2022/12/26 00:01:38;;;;;;;4.03;3.63;;;;;;;;;;5004094;28;20199;-53
2022/12/26 00:04:04;;;;;;;3.10;2.80;;;;;;;;;;5003791;28;20186;-51
2022/12/26 00:06:31;;;;;;;3.53;3.20;;;;;;;;;;4999005;28;20573;-53
2022/12/26 00:08:58;;;;;;;4.07;3.70;;;;;;;;;;4988849;28;20664;-54
2022/12/26 00:11:25;;;;;;;3.70;3.40;;;;;;;;;;4999714;28;20662;-52
2022/12/26 00:13:58;;;;;;;3.83;3.47;;;;;;;;;;5005156;28;20174;-51
2022/12/26 00:16:25;;;;;;;4.00;3.70;;;;;;;;;;5002625;28;20483;-52
2022/12/26 00:18:51;;;;;;;5.20;3.80;;;;;;;;;;5002995;28;20703;-51
2022/12/26 00:21:20;;;;;;;4.80;4.27;;;;;;;;;;4977242;28;20270;-53
2022/12/26 00:23:46;;;;;;;4.87;3.90;;;;;;;;;;5003908;28;20681;-52
2022/12/26 00:26:14;;;;;;;4.33;3.67;;;;;;;;;;4983057;28;20701;-52
2022/12/26 00:28:40;;;;;;;4.40;4.00;;;;;;;;;;5004715;28;20206;-52
2022/12/26 00:31:07;;;;;;;3.90;3.33;;;;;;;;;;5002552;28;20637;-52
2022/12/26 00:33:34;;;;;;;2.90;2.70;;;;;;;;;;5003713;28;20182;-49
2022/12/26 00:36:04;;;;;;;3.57;2.60;;;;;;;;;;5006097;28;20712;-51
2022/12/26 00:38:30;;;;;;;3.63;3.07;;;;;;;;;;5003782;28;20193;-50
2022/12/26 00:40:56;;;;;;;3.77;2.53;;;;;;;;;;5000855;28;20307;-52
2022/12/26 00:43:22;;;;;;;3.50;3.20;;;;;;;;;;5002753;28;20186;-51
2022/12/26 00:45:48;;;;;;;4.27;3.40;;;;;;;;;;5004459;28;20174;-51
2022/12/26 00:48:14;;;;;;;3.40;3.10;;;;;;;;;;5003941;28;20210;-51
2022/12/26 00:50:40;;;;;;;2.70;2.50;;;;;;;;;;5003249;28;20178;-51
2022/12/26 00:53:06;;;;;;;5.27;3.80;;;;;;;;;;5002423;28;20233;-50
2022/12/26 00:55:32;;;;;;;2.73;2.53;;;;;;;;;;5004624;28;20178;-51
2022/12/26 00:57:58;;;;;;;4.30;3.50;;;;;;;;;;5001138;28;20174;-51
2022/12/26 01:00:24;;;;;;;3.87;3.33;;;;;;;;;;5004845;28;20785;-50
2022/12/26 01:02:51;;;;;;;6.43;3.97;;;;;;;;;;5003125;28;20716;-53
2022/12/26 01:05:17;;;;;;;4.07;3.67;;;;;;;;;;5006176;28;20174;-51
2022/12/26 01:07:43;;;;;;;4.57;3.90;;;;;;;;;;5001571;28;20785;-52
2022/12/26 01:10:10;;;;;;;4.70;3.50;;;;;;;;;;5003945;28;20649;-51
2022/12/26 01:12:36;;;;;;;4.70;3.70;;;;;;;;;;5002924;28;20167;-50
2022/12/26 01:15:03;;;;;;;4.90;3.53;;;;;;;;;;5004892;28;20159;-51
2022/12/26 01:17:29;;;;;;;6.30;4.53;;;;;;;;;;5002510;28;20492;-50
2022/12/26 01:19:55;;;;;;;4.57;3.83;;;;;;;;;;5003682;28;21418;-52
2022/12/26 01:22:22;;;;;;;3.80;3.50;;;;;;;;;;4995996;28;20600;-53
2022/12/26 01:24:48;;;;;;;5.10;4.33;;;;;;;;;;5005919;28;20226;-50
2022/12/26 01:27:14;;;;;;;3.90;3.50;;;;;;;;;;5000873;28;20519;-50
2022/12/26 01:29:40;;;;;;;4.47;3.73;;;;;;;;;;5004627;28;20173;-50
2022/12/26 01:32:06;;;;;;;3.70;3.40;;;;;;;;;;5003966;28;20225;-49
2022/12/26 01:34:32;;;;;;;5.37;3.87;;;;;;;;;;5006026;28;20170;-49
2022/12/26 01:36:58;;;;;;;4.07;3.17;;;;;;;;;;5002004;28;20179;-51
2022/12/26 01:39:24;;;;;;;4.03;3.63;;;;;;;;;;4968488;28;20194;-49
2022/12/26 01:41:50;;;;;;;4.83;3.73;;;;;;;;;;5000633;28;20270;-50
2022/12/26 01:44:35;;;;;;;4.57;3.57;;;;;;;;;;4971309;28;20188;-50
2022/12/26 01:47:01;;;;;;;4.10;3.70;;;;;;;;;;5001570;28;20213;-50
2022/12/26 01:49:37;;;;;;;3.83;3.47;;;;;;;;;;4992993;28;20372;-52
2022/12/26 01:52:06;;;;;;;4.77;3.73;;;;;;;;;;5002591;28;20182;-50
2022/12/26 01:54:35;;;;;;;3.60;3.30;;;;;;;;;;5006156;28;20182;-50
2022/12/26 01:57:03;;;;;;;5.00;3.63;;;;;;;;;;5002807;28;20183;-52
2022/12/26 01:59:30;;;;;;;4.13;3.53;;;;;;;;;;5009111;28;20174;-51
2022/12/26 02:01:58;;;;;;;3.60;3.30;;;;;;;;;;4998046;28;20186;-51
2022/12/26 02:07:16;;;;;;;4.33;3.57;;;;;;;;;;5003197;28;20213;-51
2022/12/26 02:09:42;;;;;;;4.40;3.70;;;;;;;;;;5007130;28;20228;-51
2022/12/26 02:12:13;;;;;;;4.27;3.50;;;;;;;;;;5004822;28;20388;-50
2022/12/26 02:14:39;;;;;;;4.30;3.90;;;;;;;;;;5008012;28;20199;-50
2022/12/26 02:17:05;;;;;;;4.57;4.10;;;;;;;;;;5003794;28;21549;-50
2022/12/26 02:19:31;;;;;;;4.53;3.80;;;;;;;;;;5005456;28;20237;-50
2022/12/26 02:21:57;;;;;;;4.30;3.90;;;;;;;;;;4969157;28;20194;-52
2022/12/26 02:24:33;;;;;;;3.60;3.30;;;;;;;;;;4988310;28;20178;-51
2022/12/26 02:27:18;;;;;;;4.23;3.67;;;;;;;;;;4985128;28;20186;-50
2022/12/26 02:30:03;;;;;;;4.03;3.73;;;;;;;;;;4988223;28;20179;-52
2022/12/26 02:32:47;;;;;;;3.73;3.27;;;;;;;;;;5004456;28;20213;-51
2022/12/26 02:35:13;;;;;;;4.13;3.60;;;;;;;;;;5007979;28;20189;-51
2022/12/26 02:37:39;;;;;;;5.43;4.17;;;;;;;;;;5002724;28;20182;-51
2022/12/26 02:40:24;;;;;;;3.93;3.57;;;;;;;;;;5003189;28;20179;-52
2022/12/26 02:42:50;;;;;;;4.97;4.00;;;;;;;;;;4998195;28;20217;-50
2022/12/26 02:48:12;;;;;;;4.40;4.00;;;;;;;;;;5002727;28;20217;-52
2022/12/26 03:13:22;;;;;;;5.10;4.60;;;;;;;;;;5003321;28;20690;-51
2022/12/26 03:18:42;;;;;;;6.10;5.50;;;;;;;;;;5004637;28;20731;-52
2022/12/26 03:21:09;;;;;;;8.40;6.10;;;;;;;;;;5005870;28;20861;-51
2022/12/26 03:23:36;;;;;;;5.83;5.07;;;;;;;;;;5001092;28;20178;-52
2022/12/26 03:28:50;;;;;;;5.83;5.27;;;;;;;;;;5001603;28;20252;-52
2022/12/26 03:31:17;;;;;;;6.90;6.30;;;;;;;;;;5004519;28;20171;-52
2022/12/26 03:36:29;;;;;;;6.83;5.87;;;;;;;;;;5004530;28;20301;-51
2022/12/26 03:39:06;;;;;;;5.47;4.90;;;;;;;;;;5003001;28;20279;-50
2022/12/26 04:19:31;;;;;;;5.63;5.13;;;;;;;;;;5003042;28;20189;-50
2022/12/26 04:44:33;;;;;;;6.27;5.73;;;;;;;;;;4985862;28;20241;-50
2022/12/26 04:46:59;;;;;;;6.10;5.60;;;;;;;;;;4982763;28;20505;-52
2022/12/26 04:52:11;;;;;;;5.47;4.97;;;;;;;;;;4982132;28;20881;-50
2022/12/26 04:54:37;;;;;;;6.27;5.70;;;;;;;;;;4984561;28;20637;-50
2022/12/26 04:57:03;;;;;;;6.80;6.20;;;;;;;;;;4983654;28;20583;-51
2022/12/26 04:59:29;;;;;;;6.03;5.43;;;;;;;;;;4984183;28;20190;-51
2022/12/26 05:10:21;;;;;;;7.77;7.10;;;;;;;;;;4983813;28;20191;-50
2022/12/26 05:12:47;;;;;;;7.23;6.27;;;;;;;;;;4976741;28;20183;-50
2022/12/26 05:15:13;;;;;;;7.10;6.43;;;;;;;;;;4983075;28;20689;-51
2022/12/26 05:28:54;;;;;;;6.03;5.53;;;;;;;;;;5003853;28;20213;-51
2022/12/26 05:31:20;;;;;;;5.17;4.67;;;;;;;;;;5002078;28;20622;-50
2022/12/26 05:34:06;;;;;;;5.77;4.87;;;;;;;;;;5005979;28;20713;-50
2022/12/26 05:36:38;;;;;;;6.13;5.57;;;;;;;;;;5007015;28;20656;-51
2022/12/26 05:39:05;;;;;;;5.90;5.27;;;;;;;;;;4986578;28;20712;-50
2022/12/26 05:41:31;;;;;;;5.87;5.37;;;;;;;;;;5007014;28;20178;-52
2022/12/26 05:43:57;;;;;;;5.60;5.10;;;;;;;;;;5003844;28;20186;-50
2022/12/26 05:46:23;;;;;;;6.17;5.57;;;;;;;;;;5004018;28;20434;-51
2022/12/26 05:48:49;;;;;;;5.70;5.20;;;;;;;;;;5006923;28;20412;-51
2022/12/26 05:51:15;;;;;;;6.13;5.37;;;;;;;;;;5004711;28;20181;-50
2022/12/26 05:53:41;;;;;;;6.97;5.50;;;;;;;;;;5006100;28;20266;-51
2022/12/26 05:56:10;;;;;;;6.00;5.50;;;;;;;;;;5003381;28;20265;-51
2022/12/26 05:58:36;;;;;;;7.60;5.43;;;;;;;;;;4997043;28;20663;-51
2022/12/26 06:01:13;;;;;;;6.23;5.00;;;;;;;;;;5002780;28;20182;-51
2022/12/26 06:03:42;;;;;;;6.03;5.47;;;;;;;;;;4994640;28;20251;-51
2022/12/26 06:06:08;;;;;;;6.10;5.27;;;;;;;;;;5006025;28;20183;-50
2022/12/26 06:08:35;;;;;;;6.10;5.50;;;;;;;;;;5004658;28;20202;-51
2022/12/26 06:11:04;;;;;;;6.27;5.67;;;;;;;;;;5006519;28;20230;-51
2022/12/26 06:13:31;;;;;;;5.53;5.03;;;;;;;;;;5001902;28;20634;-51
2022/12/26 06:15:57;;;;;;;6.10;5.50;;;;;;;;;;5005065;28;20559;-51
2022/12/26 06:18:23;;;;;;;6.23;5.70;;;;;;;;;;5006345;28;20209;-50
2022/12/26 06:20:49;;;;;;;6.87;5.43;;;;;;;;;;5006466;28;20178;-51
2022/12/26 06:23:15;;;;;;;5.47;4.97;;;;;;;;;;5000237;28;20184;-50
2022/12/26 06:25:41;;;;;;;6.13;5.60;;;;;;;;;;5006581;28;20648;-51
2022/12/26 06:28:08;;;;;;;5.63;5.13;;;;;;;;;;5004887;28;20720;-49
2022/12/26 06:30:35;;;;;;;6.57;5.70;;;;;;;;;;5002374;28;20183;-51
2022/12/26 06:33:01;;;;;;;5.40;4.63;;;;;;;;;;5002670;28;20179;-50
2022/12/26 06:35:27;;;;;;;5.03;4.63;;;;;;;;;;5005636;28;20651;-49
2022/12/26 06:37:54;;;;;;;6.07;5.43;;;;;;;;;;5004009;28;20653;-51
2022/12/26 06:40:20;;;;;;;5.47;4.87;;;;;;;;;;5000679;28;20171;-51
2022/12/26 06:42:46;;;;;;;6.07;5.47;;;;;;;;;;4995120;28;20189;-51
2022/12/26 06:45:12;;;;;;;5.63;5.13;;;;;;;;;;4992713;28;20193;-50
2022/12/26 06:47:39;;;;;;;6.10;5.50;;;;;;;;;;4995383;28;20831;-50
2022/12/26 06:50:06;;;;;;;5.77;5.03;;;;;;;;;;5003006;28;20182;-51
2022/12/26 06:52:32;;;;;;;5.70;5.20;;;;;;;;;;4999133;28;20661;-51
2022/12/26 06:54:58;;;;;;;5.57;4.80;;;;;;;;;;4998888;28;20614;-51
2022/12/26 06:57:24;;;;;;;5.93;5.30;;;;;;;;;;4996492;28;20610;-51
2022/12/26 06:59:50;;;;;;;5.77;5.23;;;;;;;;;;5005393;28;20186;-51
2022/12/26 07:02:16;;;;;;;6.73;5.43;;;;;;;;;;4982726;28;20183;-50
2022/12/26 07:04:42;;;;;;;5.10;4.63;;;;;;;;;;5007816;28;20179;-50
2022/12/26 07:07:08;;;;;;;6.07;5.47;;;;;;;;;;5004612;28;20184;-50
2022/12/26 07:09:34;;;;;;;5.40;4.90;;;;;;;;;;5004724;28;20183;-51
2022/12/26 07:12:00;;;;;;;6.30;5.20;;;;;;;;;;5000270;28;20182;-50
2022/12/26 07:14:26;;;;;;;6.97;4.97;;;;;;;;;;5005322;28;20592;-52
2022/12/26 07:16:52;;;;;;;5.87;5.37;;;;;;;;;;4998720;28;20209;-51
2022/12/26 07:19:19;;;;;;;7.43;6.83;;;;;;;;;;5004943;28;20281;-51
2022/12/26 07:21:45;;;;;;;5.53;5.03;;;;;;;;;;5001253;28;20661;-51
2022/12/26 07:24:15;;;;;;;6.77;6.07;;;;;;;;;;5006124;28;20539;-50
2022/12/26 07:26:41;;;;;;;5.10;4.70;;;;;;;;;;4999920;28;20257;-50
2022/12/26 07:29:09;;;;;;;6.17;5.67;;;;;;;;;;5002344;28;20198;-50
2022/12/26 07:31:35;;;;;;;6.70;5.00;;;;;;;;;;4997884;28;20174;-51
2022/12/26 07:34:01;;;;;;;4.73;4.23;;;;;;;;;;4995293;28;20178;-50
2022/12/26 07:36:28;;;;;;;5.27;4.77;;;;;;;;;;4998904;28;20565;-52
2022/12/26 07:38:54;;;;;;;6.13;4.40;;;;;;;;;;4982103;28;20182;-51
2022/12/26 07:44:05;;;;;;;5.23;4.80;;;;;;;;;;4997659;28;20201;-50
2022/12/26 07:46:32;;;;;;;5.30;4.80;;;;;;;;;;4997971;28;20182;-50
2022/12/26 07:48:58;;;;;;;5.03;4.50;;;;;;;;;;4989406;28;20473;-51
2022/12/26 07:51:24;;;;;;;6.73;4.83;;;;;;;;;;4992822;28;20626;-51
2022/12/26 07:53:50;;;;;;;5.13;4.63;;;;;;;;;;5003860;28;20660;-50
2022/12/26 07:56:16;;;;;;;4.90;4.50;;;;;;;;;;5002802;28;20201;-51
2022/12/26 07:58:42;;;;;;;5.10;3.97;;;;;;;;;;5004384;28;20190;-50
2022/12/26 08:01:08;;;;;;;4.60;4.20;;;;;;;;;;5001401;28;20535;-50
2022/12/26 08:03:34;;;;;;;5.07;4.67;;;;;;;;;;5000174;28;20617;-50
2022/12/26 08:06:00;;;;;;;5.07;4.63;;;;;;;;;;4996280;28;20189;-51
2022/12/26 08:08:26;;;;;;;7.30;5.17;;;;;;;;;;4997647;28;20203;-49
2022/12/26 08:11:00;;;;;;;5.10;4.60;;;;;;;;;;4997237;28;20174;-51
2022/12/26 08:13:27;;;;;;;6.37;3.93;;;;;;;;;;4998766;28;20178;-52
2022/12/26 08:15:53;;;;;;;4.87;4.37;;;;;;;;;;5004022;28;20229;-52
2022/12/26 08:18:19;;;;;;;4.77;4.23;;;;;;;;;;4975197;28;20211;-51
2022/12/26 08:20:45;;;;;;;4.20;3.80;;;;;;;;;;4997707;28;20281;-51
2022/12/26 08:23:11;;;;;;;4.53;3.57;;;;;;;;;;5003440;28;20229;-50
2022/12/26 08:25:37;;;;;;;3.77;3.37;;;;;;;;;;4998863;28;20720;-51
2022/12/26 08:28:03;;;;;;;3.57;3.27;;;;;;;;;;5001969;28;20636;-51
2022/12/26 08:30:29;;;;;;;3.40;3.10;;;;;;;;;;4998087;28;20177;-50
2022/12/26 08:32:55;;;;;;;3.20;2.90;;;;;;;;;;4996874;28;20186;-51
2022/12/26 08:35:21;;;;;;;4.73;3.50;;;;;;;;;;5000280;28;20646;-52
2022/12/26 08:37:47;;;;;;;4.63;3.50;;;;;;;;;;5000178;28;20648;-49
2022/12/26 08:40:15;;;;;;;3.30;3.00;;;;;;;;;;4996700;28;20229;-52
2022/12/26 08:42:41;;;;;;;3.40;3.10;;;;;;;;;;4995966;28;20265;-50
2022/12/26 08:48:10;;;;;;;4.13;3.73;;;;;;;;;;4997052;28;20267;-50
2022/12/26 08:50:36;;;;;;;3.60;3.30;;;;;;;;;;5000847;28;20178;-51
2022/12/26 08:53:02;;;;;;;4.20;3.80;;;;;;;;;;4995044;28;20179;-50
2022/12/26 08:55:28;;;;;;;3.30;3.00;;;;;;;;;;4996306;28;20201;-51
2022/12/26 08:57:54;;;;;;;2.80;2.60;;;;;;;;;;4979084;28;20191;-50
2022/12/26 09:00:22;;;;;;;3.13;2.83;;;;;;;;;;4990124;28;20162;-51
2022/12/26 09:02:48;;;;;;;3.23;3.03;;;;;;;;;;4994752;28;20261;-50
2022/12/26 09:05:14;;;;;;;3.20;3.00;;;;;;;;;;5005028;28;20209;-50
2022/12/26 09:07:40;;;;;;;3.30;3.07;;;;;;;;;;5007267;28;20194;-51
2022/12/26 09:10:07;;;;;;;2.27;2.10;;;;;;;;;;4982748;28;20183;-51
2022/12/26 09:12:33;;;;;;;4.60;2.20;;;;;;;;;;4991775;28;20254;-53
2022/12/26 09:14:59;;;;;;;2.10;1.83;;;;;;;;;;4998584;28;20182;-49
2022/12/26 09:17:26;;;;;;;4.13;2.17;;;;;;;;;;5007512;28;20199;-51
2022/12/26 09:19:52;;;;;;;1.90;1.80;;;;;;;;;;5004160;28;20218;-51
2022/12/26 09:25:03;;;;;;;1.87;1.77;;;;;;;;;;4995015;28;20222;-50
2022/12/26 09:27:29;;;;;;;2.60;1.77;;;;;;;;;;4999131;28;20233;-50
2022/12/26 09:29:55;;;;;;;2.87;1.60;;;;;;;;;;5004525;28;20236;-50
2022/12/26 09:32:21;;;;;;;2.17;2.00;;;;;;;;;;5007022;28;20579;-50
2022/12/26 09:34:48;;;;;;;1.70;1.60;;;;;;;;;;5009316;28;20580;-52
2022/12/26 09:37:14;;;;;;;2.40;2.20;;;;;;;;;;5008002;28;20170;-50
2022/12/26 09:39:40;;;;;;;2.93;1.90;;;;;;;;;;5007600;28;20225;-52
2022/12/26 09:42:06;;;;;;;3.90;2.33;;;;;;;;;;5006226;28;20255;-51
2022/12/26 09:44:41;;;;;;;2.10;1.80;;;;;;;;;;5009368;28;20641;-49
2022/12/26 09:47:07;;;;;;;1.77;1.60;;;;;;;;;;5006056;28;20178;-50
2022/12/26 09:49:43;;;;;;;3.67;1.83;;;;;;;;;;5004211;28;20289;-51
2022/12/26 09:52:14;;;;;;;2.00;1.90;;;;;;;;;;4975818;28;20186;-51
2022/12/26 09:54:49;;;;;;;2.13;1.93;;;;;;;;;;5009331;28;20253;-52
2022/12/26 09:57:48;;;;;;;3.33;1.80;;;;;;;;;;5001233;28;20186;-49
2022/12/26 10:00:19;;;;;;;3.63;2.00;;;;;;;;;;5003875;28;20989;-50
2022/12/26 10:02:51;;;;;;;2.83;2.10;;;;;;;;;;5002276;28;20791;-48
2022/12/26 10:05:17;;;;;;;3.33;1.90;;;;;;;;;;4977113;28;20234;-50
2022/12/26 10:07:45;;;;;;;3.10;2.10;;;;;;;;;;4995709;28;20199;-50
2022/12/26 10:10:14;;;;;;;4.63;1.50;;;;;;;;;;4995422;28;20182;-51
2022/12/26 10:12:59;;;;;;;3.20;1.70;;;;;;;;;;4993829;28;20175;-50
2022/12/26 10:15:48;;;;;;;2.10;1.90;;;;;;;;;;4994815;28;20233;-50
2022/12/26 10:18:17;;;;;;;3.97;2.10;;;;;;;;;;4992598;28;20236;-50
2022/12/26 10:20:54;;;;;;;2.40;2.20;;;;;;;;;;4998256;28;20581;-50
2022/12/26 10:23:31;;;;;;;2.50;1.67;;;;;;;;;;5002015;28;20193;-50
2022/12/26 10:26:05;;;;;;;4.87;2.17;;;;;;;;;;5007211;28;20229;-51
2022/12/26 10:28:46;;;;;;;2.40;1.87;;;;;;;;;;5000130;28;20281;-52
2022/12/26 10:31:18;;;;;;;5.00;2.33;;;;;;;;;;4976744;28;20182;-50
2022/12/26 10:33:54;;;;;;;1.80;1.67;;;;;;;;;;5000243;28;20206;-50
2022/12/26 10:36:29;;;;;;;4.10;2.30;;;;;;;;;;5006989;28;20190;-51
2022/12/26 10:38:58;;;;;;;1.93;1.70;;;;;;;;;;5008471;28;20174;-51
2022/12/26 10:41:26;;;;;;;2.00;1.90;;;;;;;;;;5008601;28;20171;-52
2022/12/26 10:43:54;;;;;;;5.07;1.80;;;;;;;;;;5008377;28;20706;-50
2022/12/26 10:46:20;;;;;;;2.50;2.00;;;;;;;;;;5008154;28;20163;-51
2022/12/26 10:48:47;;;;;;;2.30;2.10;;;;;;;;;;5007971;28;20198;-51
2022/12/26 10:51:14;;;;;;;4.97;1.83;;;;;;;;;;5008235;28;20155;-50
2022/12/26 10:53:42;;;;;;;2.43;2.07;;;;;;;;;;5006712;28;20213;-51
2022/12/26 10:56:08;;;;;;;2.07;1.90;;;;;;;;;;5007845;28;20163;-51
2022/12/26 10:58:36;;;;;;;1.60;1.50;;;;;;;;;;5008366;28;20175;-51
2022/12/26 11:01:31;;;;;;;2.70;1.90;;;;;;;;;;5008130;28;20179;-50
2022/12/26 11:04:02;;;;;;;2.53;1.97;;;;;;;;;;4991503;28;20183;-51
2022/12/26 11:06:31;;;;;;;2.30;1.93;;;;;;;;;;5007309;28;20158;-52
2022/12/26 11:08:57;;;;;;;3.97;2.00;;;;;;;;;;5007405;28;20198;-52
2022/12/26 11:11:24;;;;;;;3.93;1.93;;;;;;;;;;5007972;28;20685;-52
2022/12/26 11:13:54;;;;;;;3.50;2.53;;;;;;;;;;5007855;28;20174;-51
2022/12/26 11:16:29;;;;;;;2.50;1.73;;;;;;;;;;5007585;28;20177;-51
2022/12/26 11:18:56;;;;;;;2.23;2.00;;;;;;;;;;5007558;28;20502;-52
2022/12/26 11:21:24;;;;;;;1.90;1.70;;;;;;;;;;5007237;28;20206;-51
2022/12/26 11:24:10;;;;;;;2.03;1.63;;;;;;;;;;5006879;28;20170;-50
2022/12/26 11:26:37;;;;;;;5.53;2.73;;;;;;;;;;5006678;28;20438;-51
2022/12/26 11:29:07;;;;;;;5.90;3.07;;;;;;;;;;5007262;28;20642;-51
2022/12/26 11:31:34;;;;;;;2.60;1.70;;;;;;;;;;4988569;28;20247;-51
2022/12/26 11:34:00;;;;;;;3.20;1.87;;;;;;;;;;4988137;28;20713;-51
2022/12/26 11:36:28;;;;;;;2.13;1.70;;;;;;;;;;4969867;28;20657;-50
2022/12/26 11:38:56;;;;;;;1.50;1.40;;;;;;;;;;4987487;28;20171;-50
2022/12/26 11:41:31;;;;;;;3.07;1.90;;;;;;;;;;4987691;28;20602;-50
2022/12/26 11:43:59;;;;;;;2.13;1.93;;;;;;;;;;4987773;28;20159;-51
2022/12/26 11:46:36;;;;;;;3.03;1.90;;;;;;;;;;4969752;28;20186;-50
2022/12/26 11:49:03;;;;;;;1.83;1.73;;;;;;;;;;4987478;28;20198;-50
2022/12/26 11:51:38;;;;;;;2.60;1.90;;;;;;;;;;4986913;28;20166;-50
2022/12/26 11:54:24;;;;;;;2.07;1.83;;;;;;;;;;4987376;28;20167;-50
2022/12/26 11:57:00;;;;;;;2.63;2.13;;;;;;;;;;4985754;28;20659;-49
2022/12/26 11:59:26;;;;;;;2.93;1.97;;;;;;;;;;4987267;28;20173;-50
2022/12/26 12:02:11;;;;;;;3.47;2.03;;;;;;;;;;4986871;28;20167;-50
2022/12/26 12:04:37;;;;;;;5.30;2.13;;;;;;;;;;4987354;28;20376;-52
2022/12/26 12:07:14;;;;;;;2.77;1.93;;;;;;;;;;4986366;28;20348;-50
2022/12/26 12:09:47;;;;;;;3.20;1.90;;;;;;;;;;4986721;28;20194;-50
2022/12/26 12:12:17;;;;;;;3.23;2.20;;;;;;;;;;4987494;28;20488;-51
2022/12/26 12:14:46;;;;;;;3.43;1.97;;;;;;;;;;4987282;28;20159;-51
2022/12/26 12:17:18;;;;;;;2.00;1.80;;;;;;;;;;4986902;28;20322;-50
2022/12/26 12:20:02;;;;;;;2.33;1.80;;;;;;;;;;4986943;28;20622;-51
2022/12/26 12:22:31;;;;;;;2.27;1.60;;;;;;;;;;4986333;28;20254;-51
2022/12/26 12:25:15;;;;;;;2.20;2.00;;;;;;;;;;4986406;28;20179;-51
2022/12/26 12:27:58;;;;;;;2.40;2.03;;;;;;;;;;4987085;28;20265;-51
2022/12/26 12:30:29;;;;;;;5.53;2.70;;;;;;;;;;4979939;28;20174;-51
2022/12/26 12:32:55;;;;;;;3.07;2.83;;;;;;;;;;5006327;28;20705;-52
2022/12/26 12:35:23;;;;;;;4.37;2.87;;;;;;;;;;5006627;28;20238;-50
2022/12/26 12:37:49;;;;;;;3.63;3.07;;;;;;;;;;5005521;28;20650;-50
2022/12/26 12:40:26;;;;;;;4.50;2.87;;;;;;;;;;5006357;28;20648;-51
2022/12/26 12:43:07;;;;;;;3.20;2.67;;;;;;;;;;5006678;28;20625;-51
2022/12/26 12:45:37;;;;;;;2.73;2.10;;;;;;;;;;5006429;28;20633;-50
2022/12/26 12:48:19;;;;;;;3.43;1.77;;;;;;;;;;5006113;28;20236;-50
2022/12/26 12:50:54;;;;;;;2.10;1.70;;;;;;;;;;5006605;28;20159;-50
2022/12/26 12:53:30;;;;;;;3.43;1.83;;;;;;;;;;5005069;28;20162;-50
2022/12/26 12:55:56;;;;;;;2.70;1.53;;;;;;;;;;5006417;28;20724;-50
2022/12/26 12:58:31;;;;;;;3.70;1.53;;;;;;;;;;5006088;28;20182;-50
2022/12/26 13:01:01;;;;;;;3.17;1.80;;;;;;;;;;5006167;28;20166;-50
2022/12/26 13:03:41;;;;;;;4.03;1.60;;;;;;;;;;5005953;28;20221;-49
2022/12/26 13:06:46;;;;;;;3.07;1.63;;;;;;;;;;5006168;28;20170;-51
2022/12/26 13:09:12;;;;;;;3.10;2.00;;;;;;;;;;4944259;29;20832;-52
2022/12/26 13:11:40;;;;;;;1.87;1.57;;;;;;;;;;4944891;29;20236;-50
2022/12/26 13:14:19;;;;;;;1.50;1.40;;;;;;;;;;4974371;28;20273;-49
2022/12/26 13:16:48;;;;;;;2.30;1.50;;;;;;;;;;5005665;28;20846;-50
2022/12/26 13:19:19;;;;;;;3.53;1.90;;;;;;;;;;5006196;28;20182;-49
2022/12/26 13:21:46;;;;;;;2.80;1.63;;;;;;;;;;5004934;28;20174;-50
2022/12/26 13:24:24;;;;;;;3.80;1.83;;;;;;;;;;5005865;28;20547;-50
2022/12/26 13:26:57;;;;;;;3.97;1.80;;;;;;;;;;5006184;28;20697;-51
2022/12/26 13:29:25;;;;;;;4.10;2.07;;;;;;;;;;5005560;28;20209;-50
2022/12/26 13:31:51;;;;;;;4.03;2.03;;;;;;;;;;4987883;28;20170;-49
2022/12/26 13:34:19;;;;;;;3.50;2.00;;;;;;;;;;5005593;28;20155;-50
2022/12/26 13:36:47;;;;;;;1.93;1.80;;;;;;;;;;5004769;28;20198;-50
2022/12/26 13:39:24;;;;;;;5.17;2.97;;;;;;;;;;5005435;28;20163;-50
2022/12/26 13:44:45;;;;;;;3.67;1.97;;;;;;;;;;5009381;28;20282;-50
2022/12/26 13:47:30;;;;;;;4.20;2.07;;;;;;;;;;5009397;28;20724;-51
2022/12/26 13:49:56;;;;;;;3.77;2.13;;;;;;;;;;5009357;28;20586;-49
2022/12/26 13:52:24;;;;;;;3.97;2.00;;;;;;;;;;5008164;28;20194;-50
2022/12/26 13:54:50;;;;;;;3.27;2.30;;;;;;;;;;5008848;28;20155;-50
2022/12/26 13:57:35;;;;;;;3.40;2.33;;;;;;;;;;5008945;28;20641;-49
2022/12/26 14:00:03;;;;;;;8.13;2.67;;;;;;;;;;5008923;28;20246;-51
2022/12/26 14:02:48;;;;;;;7.90;2.10;;;;;;;;;;5008671;28;20664;-50
2022/12/26 14:05:19;;;;;;;6.20;3.10;;;;;;;;;;5008967;28;20173;-50
2022/12/26 14:07:49;;;;;;;4.13;2.60;;;;;;;;;;5007894;28;20286;-50
2022/12/26 14:10:23;;;;;;;3.40;2.50;;;;;;;;;;5008535;28;20163;-49
2022/12/26 14:13:02;;;;;;;7.53;2.53;;;;;;;;;;5008606;28;20163;-50
2022/12/26 14:15:34;;;;;;;4.47;2.37;;;;;;;;;;5009076;28;20166;-50
2022/12/26 14:18:03;;;;;;;7.40;2.47;;;;;;;;;;5008691;28;20229;-49
2022/12/26 14:20:39;;;;;;;4.63;3.30;;;;;;;;;;5008928;28;20184;-50
2022/12/26 14:23:12;;;;;;;3.37;2.53;;;;;;;;;;5007409;28;20181;-50
2022/12/26 14:25:44;;;;;;;6.77;2.90;;;;;;;;;;5008548;28;20167;-50
2022/12/26 14:28:36;;;;;;;4.63;3.20;;;;;;;;;;5008969;28;20262;-49
2022/12/26 14:31:12;;;;;;;4.03;2.50;;;;;;;;;;4989507;28;20572;-49
2022/12/26 14:33:44;;;;;;;3.80;2.83;;;;;;;;;;4988833;28;20160;-50
2022/12/26 14:36:10;;;;;;;5.63;3.20;;;;;;;;;;4989145;28;20191;-50
2022/12/26 14:38:40;;;;;;;4.73;3.23;;;;;;;;;;4987688;28;20175;-49
2022/12/26 14:41:08;;;;;;;6.60;3.07;;;;;;;;;;4988993;28;20175;-50
2022/12/26 14:43:35;;;;;;;6.77;3.23;;;;;;;;;;4989165;28;20171;-50
2022/12/26 14:46:03;;;;;;;4.43;3.60;;;;;;;;;;4989305;28;20179;-50
2022/12/26 14:48:29;;;;;;;6.43;3.40;;;;;;;;;;4988704;28;20223;-49
2022/12/26 14:51:15;;;;;;;6.10;4.03;;;;;;;;;;4989141;28;20205;-50
2022/12/26 14:53:42;;;;;;;8.03;3.50;;;;;;;;;;4987200;28;20442;-49
2022/12/26 14:56:14;;;;;;;5.57;3.27;;;;;;;;;;4988507;28;20168;-50
2022/12/26 14:58:50;;;;;;;4.80;3.20;;;;;;;;;;4988307;28;20160;-50
2022/12/26 15:01:19;;;;;;;4.70;4.03;;;;;;;;;;4988719;28;20365;-49
2022/12/26 15:03:57;;;;;;;3.83;2.53;;;;;;;;;;4988477;28;20258;-48
2022/12/26 15:06:26;;;;;;;6.93;3.50;;;;;;;;;;4988069;28;20179;-49
2022/12/26 15:09:01;;;;;;;7.47;3.40;;;;;;;;;;4988455;28;20566;-49
2022/12/26 15:11:42;;;;;;;5.40;2.80;;;;;;;;;;4988271;28;20163;-48
2022/12/26 15:14:21;;;;;;;6.17;2.97;;;;;;;;;;4988636;28;20163;-49
2022/12/26 15:17:05;;;;;;;3.37;3.07;;;;;;;;;;4988031;28;20353;-47
2022/12/26 15:19:31;;;;;;;4.27;2.67;;;;;;;;;;4988550;28;20174;-48
2022/12/26 15:22:16;;;;;;;5.33;3.20;;;;;;;;;;4987719;28;20194;-51
2022/12/26 15:24:45;;;;;;;4.23;3.00;;;;;;;;;;4987784;28;20505;-50
2022/12/26 15:27:24;;;;;;;7.00;3.60;;;;;;;;;;4988614;28;20237;-51
2022/12/26 15:30:10;;;;;;;4.57;3.80;;;;;;;;;;4994271;28;20202;-49
2022/12/26 15:32:58;;;;;;;7.27;4.07;;;;;;;;;;5007453;28;20178;-49
2022/12/26 15:35:32;;;;;;;6.10;3.73;;;;;;;;;;5006882;28;20170;-48
2022/12/26 15:38:17;;;;;;;4.33;3.93;;;;;;;;;;5006330;28;20696;-50
2022/12/26 15:40:43;;;;;;;8.73;4.70;;;;;;;;;;5007342;28;20162;-50
2022/12/26 15:43:17;;;;;;;5.57;3.80;;;;;;;;;;5007435;28;20221;-49
2022/12/26 15:45:54;;;;;;;6.83;4.17;;;;;;;;;;5007619;28;20170;-51
2022/12/26 15:48:26;;;;;;;3.30;3.00;;;;;;;;;;4989361;28;20460;-50
2022/12/26 15:51:01;;;;;;;14.17;3.20;;;;;;;;;;5007498;28;20210;-49
2022/12/26 15:53:42;;;;;;;5.23;3.00;;;;;;;;;;4987983;28;20294;-50
2022/12/26 15:56:33;;;;;;;6.27;3.03;;;;;;;;;;5007114;28;20170;-51
2022/12/26 15:59:05;;;;;;;4.50;2.70;;;;;;;;;;5007105;28;20167;-48
2022/12/26 16:01:39;;;;;;;2.80;2.33;;;;;;;;;;5006760;28;20179;-49
2022/12/26 16:04:23;;;;;;;3.73;2.50;;;;;;;;;;5007111;28;20665;-50
2022/12/26 16:06:49;;;;;;;5.67;2.40;;;;;;;;;;5006544;28;20480;-50
2022/12/26 16:09:36;;;;;;;3.10;2.80;;;;;;;;;;5007053;28;20190;-50
2022/12/26 16:12:02;;;;;;;3.57;2.30;;;;;;;;;;5006659;28;20163;-50
2022/12/26 16:14:28;;;;;;;3.03;1.97;;;;;;;;;;5006684;28;20170;-50
2022/12/26 16:16:54;;;;;;;3.10;2.10;;;;;;;;;;5006915;28;20666;-50
2022/12/26 16:19:26;;;;;;;3.30;2.13;;;;;;;;;;5007404;28;20451;-48
2022/12/26 16:24:42;;;;;;;2.33;1.90;;;;;;;;;;5006371;28;20214;-49
2022/12/26 16:27:09;;;;;;;3.40;2.00;;;;;;;;;;5007295;28;20645;-49
2022/12/26 16:29:41;;;;;;;4.97;1.97;;;;;;;;;;5007292;28;20202;-50
2022/12/26 16:32:07;;;;;;;4.57;2.10;;;;;;;;;;4988830;28;20542;-50
2022/12/26 16:34:36;;;;;;;3.83;1.90;;;;;;;;;;5006843;28;20167;-50
2022/12/26 16:37:02;;;;;;;3.77;2.00;;;;;;;;;;5005580;28;20727;-49
2022/12/26 16:39:28;;;;;;;4.33;2.20;;;;;;;;;;5006548;28;20213;-50
2022/12/26 16:41:57;;;;;;;3.77;2.40;;;;;;;;;;5006239;28;20563;-50
2022/12/26 16:44:27;;;;;;;2.30;1.80;;;;;;;;;;5006360;28;20705;-50
2022/12/26 16:46:53;;;;;;;1.90;1.80;;;;;;;;;;5006499;28;20197;-50
2022/12/26 16:49:21;;;;;;;4.60;2.37;;;;;;;;;;5006479;28;20596;-49
2022/12/26 16:51:48;;;;;;;1.97;1.80;;;;;;;;;;5005321;28;20167;-51
2022/12/26 16:54:21;;;;;;;4.43;2.43;;;;;;;;;;5006051;28;20212;-51
2022/12/26 16:56:49;;;;;;;2.27;1.80;;;;;;;;;;5006494;28;20171;-49
2022/12/26 16:59:17;;;;;;;4.30;1.90;;;;;;;;;;5006329;28;20178;-50
2022/12/26 17:01:48;;;;;;;4.20;1.80;;;;;;;;;;5006203;28;20556;-50
2022/12/26 17:04:14;;;;;;;2.83;1.60;;;;;;;;;;5006807;28;20586;-49
2022/12/26 17:06:47;;;;;;;5.17;2.83;;;;;;;;;;5005396;28;20185;-50
2022/12/26 17:09:14;;;;;;;4.47;1.87;;;;;;;;;;4988483;28;20564;-50
2022/12/26 17:11:52;;;;;;;1.97;1.83;;;;;;;;;;5006242;28;20669;-49
2022/12/26 17:14:26;;;;;;;2.77;2.03;;;;;;;;;;5006230;28;20164;-51